sensor_id;sensor_type;location;lat;lon;timestamp;P1;durP1;ratioP1;P2;durP2;ratioP2
44147;SDS011;29810;55.848;37.368;2022-08-01T00:02:21;11.40;;;5.22;;
44147;SDS011;29810;55.848;37.368;2022-08-01T00:05:22;9.00;;;4.60;;
44147;SDS011;29810;55.848;37.368;2022-08-01T00:08:24;7.80;;;4.75;;
44147;SDS011;29810;55.848;37.368;2022-08-01T00:11:26;12.43;;;4.82;;
44147;SDS011;29810;55.848;37.368;2022-08-01T00:14:27;7.97;;;4.80;;
44147;SDS011;29810;55.848;37.368;2022-08-01T00:17:29;9.10;;;4.62;;
44147;SDS011;29810;55.848;37.368;2022-08-01T00:20:30;6.45;;;4.55;;
44147;SDS011;29810;55.848;37.368;2022-08-01T00:23:32;8.35;;;4.25;;
44147;SDS011;29810;55.848;37.368;2022-08-01T00:26:33;8.38;;;4.37;;
44147;SDS011;29810;55.848;37.368;2022-08-01T00:29:35;6.35;;;3.83;;
44147;SDS011;29810;55.848;37.368;2022-08-01T00:32:36;7.93;;;3.87;;
44147;SDS011;29810;55.848;37.368;2022-08-01T00:35:38;8.60;;;4.37;;
44147;SDS011;29810;55.848;37.368;2022-08-01T00:38:39;5.53;;;3.87;;
44147;SDS011;29810;55.848;37.368;2022-08-01T00:41:44;11.57;;;4.80;;
44147;SDS011;29810;55.848;37.368;2022-08-01T00:44:45;8.70;;;3.83;;
44147;SDS011;29810;55.848;37.368;2022-08-01T00:47:47;9.32;;;4.90;;
44147;SDS011;29810;55.848;37.368;2022-08-01T00:50:49;8.88;;;4.90;;
44147;SDS011;29810;55.848;37.368;2022-08-01T00:53:50;11.75;;;4.60;;
44147;SDS011;29810;55.848;37.368;2022-08-01T00:56:52;7.15;;;4.05;;
44147;SDS011;29810;55.848;37.368;2022-08-01T00:59:55;5.80;;;3.67;;
44147;SDS011;29810;55.848;37.368;2022-08-01T01:02:57;6.65;;;3.90;;
44147;SDS011;29810;55.848;37.368;2022-08-01T01:16:00;10.50;;;4.30;;
44147;SDS011;29810;55.848;37.368;2022-08-01T01:19:07;8.45;;;4.50;;
44147;SDS011;29810;55.848;37.368;2022-08-01T01:22:19;7.55;;;4.60;;
44147;SDS011;29810;55.848;37.368;2022-08-01T01:32:14;9.95;;;5.40;;
44147;SDS011;29810;55.848;37.368;2022-08-01T01:35:27;10.02;;;5.03;;
44147;SDS011;29810;55.848;37.368;2022-08-01T01:38:33;10.48;;;5.35;;
44147;SDS011;29810;55.848;37.368;2022-08-01T01:41:37;8.75;;;5.32;;
44147;SDS011;29810;55.848;37.368;2022-08-01T01:44:41;11.75;;;5.40;;
44147;SDS011;29810;55.848;37.368;2022-08-01T01:47:45;10.25;;;5.00;;
44147;SDS011;29810;55.848;37.368;2022-08-01T01:50:48;8.80;;;5.07;;
44147;SDS011;29810;55.848;37.368;2022-08-01T01:53:51;10.38;;;4.93;;
44147;SDS011;29810;55.848;37.368;2022-08-01T01:56:56;8.93;;;5.12;;
44147;SDS011;29810;55.848;37.368;2022-08-01T02:00:00;9.40;;;5.00;;
44147;SDS011;29810;55.848;37.368;2022-08-01T02:03:08;9.25;;;4.97;;
44147;SDS011;29810;55.848;37.368;2022-08-01T02:06:12;13.38;;;5.75;;
44147;SDS011;29810;55.848;37.368;2022-08-01T02:09:16;12.70;;;5.30;;
44147;SDS011;29810;55.848;37.368;2022-08-01T02:12:20;8.48;;;4.82;;
44147;SDS011;29810;55.848;37.368;2022-08-01T02:15:42;10.82;;;5.28;;
44147;SDS011;29810;55.848;37.368;2022-08-01T02:18:45;10.30;;;5.30;;
44147;SDS011;29810;55.848;37.368;2022-08-01T02:25:15;11.45;;;4.70;;
44147;SDS011;29810;55.848;37.368;2022-08-01T02:28:23;11.60;;;5.28;;
44147;SDS011;29810;55.848;37.368;2022-08-01T02:31:30;9.15;;;5.05;;
44147;SDS011;29810;55.848;37.368;2022-08-01T02:34:36;8.50;;;4.87;;
44147;SDS011;29810;55.848;37.368;2022-08-01T02:37:39;10.05;;;5.18;;
44147;SDS011;29810;55.848;37.368;2022-08-01T02:40:45;7.65;;;4.97;;
44147;SDS011;29810;55.848;37.368;2022-08-01T02:43:49;12.07;;;5.18;;
44147;SDS011;29810;55.848;37.368;2022-08-01T02:46:54;9.43;;;5.63;;
44147;SDS011;29810;55.848;37.368;2022-08-01T02:49:59;11.52;;;5.53;;
44147;SDS011;29810;55.848;37.368;2022-08-01T02:53:04;8.82;;;4.80;;
44147;SDS011;29810;55.848;37.368;2022-08-01T02:56:08;8.38;;;5.07;;
44147;SDS011;29810;55.848;37.368;2022-08-01T02:59:13;11.82;;;5.28;;
44147;SDS011;29810;55.848;37.368;2022-08-01T03:02:17;7.43;;;4.68;;
44147;SDS011;29810;55.848;37.368;2022-08-01T03:05:20;7.85;;;5.35;;
44147;SDS011;29810;55.848;37.368;2022-08-01T03:08:22;10.40;;;5.03;;
44147;SDS011;29810;55.848;37.368;2022-08-01T03:11:26;7.30;;;4.85;;
44147;SDS011;29810;55.848;37.368;2022-08-01T03:14:29;12.70;;;5.30;;
44147;SDS011;29810;55.848;37.368;2022-08-01T03:17:34;10.55;;;5.20;;
44147;SDS011;29810;55.848;37.368;2022-08-01T03:20:39;9.95;;;5.25;;
44147;SDS011;29810;55.848;37.368;2022-08-01T03:23:43;8.75;;;4.50;;
44147;SDS011;29810;55.848;37.368;2022-08-01T03:26:46;8.98;;;5.03;;
44147;SDS011;29810;55.848;37.368;2022-08-01T03:29:49;11.12;;;4.53;;
44147;SDS011;29810;55.848;37.368;2022-08-01T03:32:52;7.32;;;4.20;;
44147;SDS011;29810;55.848;37.368;2022-08-01T03:35:54;8.63;;;4.62;;
44147;SDS011;29810;55.848;37.368;2022-08-01T03:38:59;8.37;;;3.90;;
44147;SDS011;29810;55.848;37.368;2022-08-01T03:42:07;8.88;;;4.47;;
44147;SDS011;29810;55.848;37.368;2022-08-01T03:45:19;7.95;;;4.50;;
44147;SDS011;29810;55.848;37.368;2022-08-01T03:48:28;9.02;;;4.37;;
44147;SDS011;29810;55.848;37.368;2022-08-01T03:51:32;10.93;;;4.40;;
44147;SDS011;29810;55.848;37.368;2022-08-01T03:54:36;6.53;;;4.50;;
44147;SDS011;29810;55.848;37.368;2022-08-01T03:57:50;8.83;;;4.50;;
44147;SDS011;29810;55.848;37.368;2022-08-01T04:00:53;6.93;;;3.90;;
44147;SDS011;29810;55.848;37.368;2022-08-01T04:03:55;8.75;;;4.10;;
44147;SDS011;29810;55.848;37.368;2022-08-01T04:06:57;8.55;;;4.35;;
44147;SDS011;29810;55.848;37.368;2022-08-01T04:10:05;10.07;;;4.70;;
44147;SDS011;29810;55.848;37.368;2022-08-01T04:13:07;7.20;;;4.00;;
44147;SDS011;29810;55.848;37.368;2022-08-01T04:16:09;7.30;;;4.15;;
44147;SDS011;29810;55.848;37.368;2022-08-01T04:19:10;7.22;;;3.90;;
44147;SDS011;29810;55.848;37.368;2022-08-01T04:22:13;7.57;;;3.85;;
44147;SDS011;29810;55.848;37.368;2022-08-01T04:25:32;7.43;;;3.50;;
44147;SDS011;29810;55.848;37.368;2022-08-01T04:28:36;7.37;;;3.67;;
44147;SDS011;29810;55.848;37.368;2022-08-01T04:31:39;8.10;;;3.40;;
44147;SDS011;29810;55.848;37.368;2022-08-01T04:34:45;7.53;;;3.80;;
44147;SDS011;29810;55.848;37.368;2022-08-01T04:37:48;6.57;;;3.45;;
44147;SDS011;29810;55.848;37.368;2022-08-01T04:40:52;5.25;;;3.33;;
44147;SDS011;29810;55.848;37.368;2022-08-01T04:43:55;6.65;;;3.28;;
44147;SDS011;29810;55.848;37.368;2022-08-01T04:47:02;6.20;;;3.45;;
44147;SDS011;29810;55.848;37.368;2022-08-01T04:50:07;6.57;;;3.80;;
44147;SDS011;29810;55.848;37.368;2022-08-01T04:56:15;5.95;;;3.80;;
44147;SDS011;29810;55.848;37.368;2022-08-01T04:59:17;7.40;;;4.07;;
44147;SDS011;29810;55.848;37.368;2022-08-01T05:02:37;8.98;;;4.00;;
44147;SDS011;29810;55.848;37.368;2022-08-01T05:05:39;6.32;;;3.75;;
44147;SDS011;29810;55.848;37.368;2022-08-01T05:08:40;6.20;;;4.12;;
44147;SDS011;29810;55.848;37.368;2022-08-01T05:11:42;7.03;;;3.92;;
44147;SDS011;29810;55.848;37.368;2022-08-01T05:14:44;7.45;;;4.30;;
44147;SDS011;29810;55.848;37.368;2022-08-01T05:17:47;9.02;;;4.45;;
44147;SDS011;29810;55.848;37.368;2022-08-01T05:20:48;9.10;;;4.32;;
44147;SDS011;29810;55.848;37.368;2022-08-01T05:23:50;9.65;;;4.40;;
44147;SDS011;29810;55.848;37.368;2022-08-01T05:26:51;7.15;;;4.70;;
44147;SDS011;29810;55.848;37.368;2022-08-01T05:29:53;6.70;;;4.68;;
44147;SDS011;29810;55.848;37.368;2022-08-01T05:32:54;7.45;;;4.22;;
44147;SDS011;29810;55.848;37.368;2022-08-01T05:35:56;7.47;;;4.85;;
44147;SDS011;29810;55.848;37.368;2022-08-01T05:38:57;10.23;;;4.57;;
44147;SDS011;29810;55.848;37.368;2022-08-01T05:41:59;8.20;;;4.70;;
44147;SDS011;29810;55.848;37.368;2022-08-01T05:45:01;8.02;;;4.50;;
44147;SDS011;29810;55.848;37.368;2022-08-01T05:48:05;6.47;;;4.10;;
44147;SDS011;29810;55.848;37.368;2022-08-01T05:51:06;7.50;;;4.03;;
44147;SDS011;29810;55.848;37.368;2022-08-01T05:54:08;14.00;;;3.70;;
44147;SDS011;29810;55.848;37.368;2022-08-01T05:57:09;5.03;;;2.90;;
44147;SDS011;29810;55.848;37.368;2022-08-01T06:00:11;6.97;;;2.85;;
44147;SDS011;29810;55.848;37.368;2022-08-01T06:03:14;12.55;;;3.00;;
44147;SDS011;29810;55.848;37.368;2022-08-01T06:06:15;7.65;;;2.80;;
44147;SDS011;29810;55.848;37.368;2022-08-01T06:09:17;7.22;;;3.00;;
44147;SDS011;29810;55.848;37.368;2022-08-01T06:12:18;12.80;;;2.87;;
44147;SDS011;29810;55.848;37.368;2022-08-01T06:15:20;6.78;;;3.20;;
44147;SDS011;29810;55.848;37.368;2022-08-01T06:18:21;7.35;;;3.08;;
44147;SDS011;29810;55.848;37.368;2022-08-01T06:21:23;8.13;;;3.10;;
44147;SDS011;29810;55.848;37.368;2022-08-01T06:24:24;9.15;;;3.33;;
44147;SDS011;29810;55.848;37.368;2022-08-01T06:27:26;7.07;;;3.10;;
44147;SDS011;29810;55.848;37.368;2022-08-01T06:30:27;5.78;;;2.80;;
44147;SDS011;29810;55.848;37.368;2022-08-01T06:33:29;10.73;;;3.00;;
44147;SDS011;29810;55.848;37.368;2022-08-01T06:36:31;4.60;;;2.60;;
44147;SDS011;29810;55.848;37.368;2022-08-01T06:39:33;5.47;;;2.67;;
44147;SDS011;29810;55.848;37.368;2022-08-01T06:42:34;6.32;;;2.90;;
44147;SDS011;29810;55.848;37.368;2022-08-01T06:45:37;6.15;;;2.90;;
44147;SDS011;29810;55.848;37.368;2022-08-01T06:48:40;7.95;;;3.20;;
44147;SDS011;29810;55.848;37.368;2022-08-01T06:51:41;7.85;;;3.08;;
44147;SDS011;29810;55.848;37.368;2022-08-01T06:54:43;5.80;;;2.85;;
44147;SDS011;29810;55.848;37.368;2022-08-01T06:57:45;6.40;;;3.10;;
44147;SDS011;29810;55.848;37.368;2022-08-01T07:00:51;8.35;;;3.20;;
44147;SDS011;29810;55.848;37.368;2022-08-01T07:03:52;6.97;;;3.30;;
44147;SDS011;29810;55.848;37.368;2022-08-01T07:06:54;8.18;;;3.50;;
44147;SDS011;29810;55.848;37.368;2022-08-01T07:09:56;16.50;;;3.60;;
44147;SDS011;29810;55.848;37.368;2022-08-01T07:12:57;5.53;;;3.03;;
44147;SDS011;29810;55.848;37.368;2022-08-01T07:15:59;7.93;;;3.40;;
44147;SDS011;29810;55.848;37.368;2022-08-01T07:19:00;7.50;;;3.58;;
44147;SDS011;29810;55.848;37.368;2022-08-01T07:22:02;9.35;;;3.53;;
44147;SDS011;29810;55.848;37.368;2022-08-01T07:25:04;7.47;;;3.05;;
44147;SDS011;29810;55.848;37.368;2022-08-01T07:28:07;7.40;;;2.80;;
44147;SDS011;29810;55.848;37.368;2022-08-01T07:31:09;3.95;;;2.75;;
44147;SDS011;29810;55.848;37.368;2022-08-01T07:34:10;4.85;;;2.50;;
44147;SDS011;29810;55.848;37.368;2022-08-01T07:37:12;7.47;;;3.22;;
44147;SDS011;29810;55.848;37.368;2022-08-01T07:40:13;6.07;;;2.90;;
44147;SDS011;29810;55.848;37.368;2022-08-01T07:43:15;4.85;;;2.50;;
44147;SDS011;29810;55.848;37.368;2022-08-01T07:46:17;7.30;;;2.30;;
44147;SDS011;29810;55.848;37.368;2022-08-01T07:49:18;5.60;;;2.50;;
44147;SDS011;29810;55.848;37.368;2022-08-01T07:52:20;6.20;;;2.47;;
44147;SDS011;29810;55.848;37.368;2022-08-01T07:55:21;5.72;;;2.53;;
44147;SDS011;29810;55.848;37.368;2022-08-01T07:58:23;5.28;;;2.78;;
44147;SDS011;29810;55.848;37.368;2022-08-01T08:01:24;4.97;;;2.50;;
44147;SDS011;29810;55.848;37.368;2022-08-01T08:04:26;7.05;;;2.42;;
44147;SDS011;29810;55.848;37.368;2022-08-01T08:07:28;6.32;;;2.60;;
44147;SDS011;29810;55.848;37.368;2022-08-01T08:10:30;5.65;;;2.60;;
44147;SDS011;29810;55.848;37.368;2022-08-01T08:13:31;9.63;;;2.60;;
44147;SDS011;29810;55.848;37.368;2022-08-01T08:16:33;6.70;;;2.60;;
44147;SDS011;29810;55.848;37.368;2022-08-01T08:19:34;4.78;;;2.58;;
44147;SDS011;29810;55.848;37.368;2022-08-01T08:22:38;5.87;;;2.80;;
44147;SDS011;29810;55.848;37.368;2022-08-01T08:25:39;6.75;;;2.80;;
44147;SDS011;29810;55.848;37.368;2022-08-01T08:28:41;4.28;;;2.50;;
44147;SDS011;29810;55.848;37.368;2022-08-01T08:31:42;6.32;;;2.78;;
44147;SDS011;29810;55.848;37.368;2022-08-01T08:34:44;3.80;;;3.00;;
44147;SDS011;29810;55.848;37.368;2022-08-01T08:37:46;4.03;;;2.87;;
44147;SDS011;29810;55.848;37.368;2022-08-01T08:40:48;7.72;;;3.40;;
44147;SDS011;29810;55.848;37.368;2022-08-01T08:43:49;6.28;;;3.30;;
44147;SDS011;29810;55.848;37.368;2022-08-01T08:46:51;6.37;;;3.47;;
44147;SDS011;29810;55.848;37.368;2022-08-01T08:49:54;6.32;;;2.95;;
44147;SDS011;29810;55.848;37.368;2022-08-01T08:52:57;8.30;;;3.22;;
44147;SDS011;29810;55.848;37.368;2022-08-01T08:56:02;6.20;;;3.43;;
44147;SDS011;29810;55.848;37.368;2022-08-01T08:59:08;7.50;;;3.10;;
44147;SDS011;29810;55.848;37.368;2022-08-01T09:02:12;4.05;;;2.70;;
44147;SDS011;29810;55.848;37.368;2022-08-01T09:05:13;7.10;;;2.90;;
44147;SDS011;29810;55.848;37.368;2022-08-01T09:08:15;4.53;;;2.80;;
44147;SDS011;29810;55.848;37.368;2022-08-01T09:11:17;4.35;;;2.12;;
44147;SDS011;29810;55.848;37.368;2022-08-01T09:14:18;4.75;;;2.65;;
44147;SDS011;29810;55.848;37.368;2022-08-01T09:17:25;5.78;;;2.75;;
44147;SDS011;29810;55.848;37.368;2022-08-01T09:20:26;5.95;;;3.10;;
44147;SDS011;29810;55.848;37.368;2022-08-01T09:23:32;6.07;;;3.08;;
44147;SDS011;29810;55.848;37.368;2022-08-01T09:26:35;7.18;;;3.67;;
44147;SDS011;29810;55.848;37.368;2022-08-01T09:29:37;7.57;;;3.12;;
44147;SDS011;29810;55.848;37.368;2022-08-01T09:35:59;7.57;;;3.40;;
44147;SDS011;29810;55.848;37.368;2022-08-01T09:39:04;9.82;;;3.40;;
44147;SDS011;29810;55.848;37.368;2022-08-01T09:42:21;8.00;;;3.40;;
44147;SDS011;29810;55.848;37.368;2022-08-01T09:45:33;5.18;;;3.03;;
44147;SDS011;29810;55.848;37.368;2022-08-01T09:48:35;5.03;;;2.92;;
44147;SDS011;29810;55.848;37.368;2022-08-01T09:51:38;4.75;;;2.87;;
44147;SDS011;29810;55.848;37.368;2022-08-01T09:54:41;5.90;;;3.00;;
44147;SDS011;29810;55.848;37.368;2022-08-01T09:57:54;6.50;;;3.20;;
44147;SDS011;29810;55.848;37.368;2022-08-01T10:00:58;8.40;;;3.10;;
44147;SDS011;29810;55.848;37.368;2022-08-01T10:04:11;4.87;;;2.53;;
44147;SDS011;29810;55.848;37.368;2022-08-01T10:07:17;6.97;;;2.70;;
44147;SDS011;29810;55.848;37.368;2022-08-01T10:10:20;5.43;;;3.20;;
44147;SDS011;29810;55.848;37.368;2022-08-01T10:13:21;5.68;;;3.08;;
44147;SDS011;29810;55.848;37.368;2022-08-01T10:16:24;6.18;;;3.12;;
44147;SDS011;29810;55.848;37.368;2022-08-01T10:19:27;4.28;;;2.90;;
44147;SDS011;29810;55.848;37.368;2022-08-01T10:22:31;5.43;;;3.08;;
44147;SDS011;29810;55.848;37.368;2022-08-01T10:25:35;5.60;;;2.97;;
44147;SDS011;29810;55.848;37.368;2022-08-01T10:28:40;4.87;;;2.97;;
44147;SDS011;29810;55.848;37.368;2022-08-01T10:31:46;4.72;;;3.00;;
44147;SDS011;29810;55.848;37.368;2022-08-01T10:34:49;5.25;;;2.85;;
44147;SDS011;29810;55.848;37.368;2022-08-01T10:37:51;7.85;;;3.08;;
44147;SDS011;29810;55.848;37.368;2022-08-01T10:40:59;3.40;;;2.60;;
44147;SDS011;29810;55.848;37.368;2022-08-01T10:44:03;4.82;;;2.75;;
44147;SDS011;29810;55.848;37.368;2022-08-01T10:47:10;4.30;;;2.90;;
44147;SDS011;29810;55.848;37.368;2022-08-01T10:50:15;5.45;;;2.80;;
44147;SDS011;29810;55.848;37.368;2022-08-01T10:53:25;3.67;;;3.03;;
44147;SDS011;29810;55.848;37.368;2022-08-01T10:56:38;7.03;;;3.12;;
44147;SDS011;29810;55.848;37.368;2022-08-01T10:59:50;6.07;;;3.20;;
44147;SDS011;29810;55.848;37.368;2022-08-01T11:02:59;6.20;;;3.12;;
44147;SDS011;29810;55.848;37.368;2022-08-01T11:06:03;8.00;;;3.60;;
44147;SDS011;29810;55.848;37.368;2022-08-01T11:09:15;4.82;;;3.40;;
44147;SDS011;29810;55.848;37.368;2022-08-01T11:12:24;7.68;;;3.55;;
44147;SDS011;29810;55.848;37.368;2022-08-01T11:15:41;5.12;;;3.17;;
44147;SDS011;29810;55.848;37.368;2022-08-01T11:18:52;8.43;;;3.42;;
44147;SDS011;29810;55.848;37.368;2022-08-01T11:24:57;5.93;;;3.42;;
44147;SDS011;29810;55.848;37.368;2022-08-01T11:28:21;9.23;;;3.47;;
44147;SDS011;29810;55.848;37.368;2022-08-01T11:31:25;9.15;;;3.35;;
44147;SDS011;29810;55.848;37.368;2022-08-01T11:41:30;7.03;;;3.30;;
44147;SDS011;29810;55.848;37.368;2022-08-01T11:44:44;9.02;;;3.78;;
44147;SDS011;29810;55.848;37.368;2022-08-01T11:47:51;6.90;;;3.60;;
44147;SDS011;29810;55.848;37.368;2022-08-01T11:50:54;6.18;;;3.50;;
44147;SDS011;29810;55.848;37.368;2022-08-01T11:53:57;6.35;;;3.83;;
44147;SDS011;29810;55.848;37.368;2022-08-01T11:57:01;4.75;;;3.60;;
44147;SDS011;29810;55.848;37.368;2022-08-01T12:00:16;5.93;;;3.33;;
44147;SDS011;29810;55.848;37.368;2022-08-01T12:03:26;5.37;;;3.22;;
44147;SDS011;29810;55.848;37.368;2022-08-01T12:06:29;6.78;;;3.50;;
44147;SDS011;29810;55.848;37.368;2022-08-01T12:09:31;7.65;;;3.33;;
44147;SDS011;29810;55.848;37.368;2022-08-01T12:12:33;6.95;;;3.40;;
44147;SDS011;29810;55.848;37.368;2022-08-01T12:15:36;6.53;;;3.10;;
44147;SDS011;29810;55.848;37.368;2022-08-01T12:18:41;6.75;;;3.67;;
44147;SDS011;29810;55.848;37.368;2022-08-01T12:21:44;6.00;;;3.50;;
44147;SDS011;29810;55.848;37.368;2022-08-01T12:24:45;5.87;;;3.17;;
44147;SDS011;29810;55.848;37.368;2022-08-01T12:27:47;6.82;;;3.50;;
44147;SDS011;29810;55.848;37.368;2022-08-01T12:30:49;6.55;;;3.70;;
44147;SDS011;29810;55.848;37.368;2022-08-01T12:33:51;9.00;;;3.25;;
44147;SDS011;29810;55.848;37.368;2022-08-01T12:36:54;6.15;;;3.30;;
44147;SDS011;29810;55.848;37.368;2022-08-01T12:39:58;6.15;;;2.95;;
44147;SDS011;29810;55.848;37.368;2022-08-01T12:43:04;8.43;;;3.47;;
44147;SDS011;29810;55.848;37.368;2022-08-01T12:46:09;5.62;;;3.22;;
44147;SDS011;29810;55.848;37.368;2022-08-01T12:49:16;8.98;;;3.12;;
44147;SDS011;29810;55.848;37.368;2022-08-01T12:52:19;6.20;;;3.30;;
44147;SDS011;29810;55.848;37.368;2022-08-01T12:55:23;4.55;;;3.40;;
44147;SDS011;29810;55.848;37.368;2022-08-01T12:58:31;7.57;;;3.42;;
44147;SDS011;29810;55.848;37.368;2022-08-01T13:01:33;4.57;;;3.35;;
44147;SDS011;29810;55.848;37.368;2022-08-01T13:04:48;5.37;;;3.30;;
44147;SDS011;29810;55.848;37.368;2022-08-01T13:07:52;6.75;;;3.55;;
44147;SDS011;29810;55.848;37.368;2022-08-01T13:11:08;6.15;;;3.55;;
44147;SDS011;29810;55.848;37.368;2022-08-01T13:14:29;5.15;;;3.42;;
44147;SDS011;29810;55.848;37.368;2022-08-01T13:17:31;7.55;;;4.05;;
44147;SDS011;29810;55.848;37.368;2022-08-01T13:20:36;7.60;;;4.50;;
44147;SDS011;29810;55.848;37.368;2022-08-01T13:23:38;6.43;;;4.30;;
44147;SDS011;29810;55.848;37.368;2022-08-01T13:26:42;7.75;;;3.40;;
44147;SDS011;29810;55.848;37.368;2022-08-01T13:29:45;9.27;;;3.60;;
44147;SDS011;29810;55.848;37.368;2022-08-01T13:32:57;6.00;;;4.03;;
44147;SDS011;29810;55.848;37.368;2022-08-01T13:36:00;5.47;;;3.78;;
44147;SDS011;29810;55.848;37.368;2022-08-01T13:39:01;7.53;;;3.83;;
44147;SDS011;29810;55.848;37.368;2022-08-01T13:42:22;8.15;;;4.12;;
44147;SDS011;29810;55.848;37.368;2022-08-01T13:45:23;8.80;;;4.12;;
44147;SDS011;29810;55.848;37.368;2022-08-01T13:48:25;7.68;;;3.97;;
44147;SDS011;29810;55.848;37.368;2022-08-01T13:51:26;10.88;;;4.18;;
44147;SDS011;29810;55.848;37.368;2022-08-01T13:54:29;9.90;;;4.32;;
44147;SDS011;29810;55.848;37.368;2022-08-01T13:57:30;8.25;;;4.30;;
44147;SDS011;29810;55.848;37.368;2022-08-01T14:00:32;9.27;;;5.62;;
44147;SDS011;29810;55.848;37.368;2022-08-01T14:03:33;9.77;;;4.25;;
44147;SDS011;29810;55.848;37.368;2022-08-01T14:06:35;8.27;;;4.37;;
44147;SDS011;29810;55.848;37.368;2022-08-01T14:09:37;5.68;;;4.07;;
44147;SDS011;29810;55.848;37.368;2022-08-01T14:12:38;9.48;;;4.18;;
44147;SDS011;29810;55.848;37.368;2022-08-01T14:15:40;6.72;;;3.78;;
44147;SDS011;29810;55.848;37.368;2022-08-01T14:18:41;7.43;;;3.85;;
44147;SDS011;29810;55.848;37.368;2022-08-01T14:21:43;6.07;;;3.37;;
44147;SDS011;29810;55.848;37.368;2022-08-01T14:24:44;4.65;;;3.40;;
44147;SDS011;29810;55.848;37.368;2022-08-01T14:27:46;8.60;;;3.45;;
44147;SDS011;29810;55.848;37.368;2022-08-01T14:30:48;9.55;;;4.00;;
44147;SDS011;29810;55.848;37.368;2022-08-01T14:33:50;7.20;;;3.67;;
44147;SDS011;29810;55.848;37.368;2022-08-01T14:36:52;6.72;;;3.30;;
44147;SDS011;29810;55.848;37.368;2022-08-01T14:39:58;9.05;;;3.53;;
44147;SDS011;29810;55.848;37.368;2022-08-01T14:43:01;10.52;;;4.00;;
44147;SDS011;29810;55.848;37.368;2022-08-01T14:46:03;13.02;;;3.65;;
44147;SDS011;29810;55.848;37.368;2022-08-01T14:49:05;8.88;;;3.85;;
44147;SDS011;29810;55.848;37.368;2022-08-01T14:52:07;6.12;;;3.47;;
44147;SDS011;29810;55.848;37.368;2022-08-01T14:55:09;8.10;;;3.75;;
44147;SDS011;29810;55.848;37.368;2022-08-01T14:58:12;7.60;;;3.55;;
44147;SDS011;29810;55.848;37.368;2022-08-01T15:01:14;8.73;;;3.85;;
44147;SDS011;29810;55.848;37.368;2022-08-01T15:04:16;7.28;;;3.50;;
44147;SDS011;29810;55.848;37.368;2022-08-01T15:07:19;5.28;;;3.22;;
44147;SDS011;29810;55.848;37.368;2022-08-01T15:10:21;12.40;;;4.87;;
44147;SDS011;29810;55.848;37.368;2022-08-01T15:13:23;4.60;;;3.30;;
44147;SDS011;29810;55.848;37.368;2022-08-01T15:16:25;7.40;;;3.60;;
44147;SDS011;29810;55.848;37.368;2022-08-01T15:19:26;7.45;;;3.60;;
44147;SDS011;29810;55.848;37.368;2022-08-01T15:22:28;5.53;;;3.28;;
44147;SDS011;29810;55.848;37.368;2022-08-01T15:25:30;5.15;;;3.40;;
44147;SDS011;29810;55.848;37.368;2022-08-01T15:28:32;6.82;;;4.03;;
44147;SDS011;29810;55.848;37.368;2022-08-01T15:31:33;5.82;;;3.60;;
44147;SDS011;29810;55.848;37.368;2022-08-01T15:34:35;8.82;;;4.50;;
44147;SDS011;29810;55.848;37.368;2022-08-01T15:37:38;6.62;;;4.05;;
44147;SDS011;29810;55.848;37.368;2022-08-01T15:40:40;8.68;;;3.80;;
44147;SDS011;29810;55.848;37.368;2022-08-01T15:43:41;6.12;;;3.83;;
44147;SDS011;29810;55.848;37.368;2022-08-01T15:46:43;6.25;;;3.55;;
44147;SDS011;29810;55.848;37.368;2022-08-01T15:49:44;5.53;;;3.47;;
44147;SDS011;29810;55.848;37.368;2022-08-01T15:52:46;8.00;;;3.55;;
44147;SDS011;29810;55.848;37.368;2022-08-01T15:55:47;5.70;;;3.50;;
44147;SDS011;29810;55.848;37.368;2022-08-01T15:58:50;6.55;;;3.40;;
44147;SDS011;29810;55.848;37.368;2022-08-01T16:01:51;7.20;;;3.15;;
44147;SDS011;29810;55.848;37.368;2022-08-01T16:04:53;7.35;;;3.10;;
44147;SDS011;29810;55.848;37.368;2022-08-01T16:07:54;6.60;;;3.50;;
44147;SDS011;29810;55.848;37.368;2022-08-01T16:10:56;6.25;;;3.12;;
44147;SDS011;29810;55.848;37.368;2022-08-01T16:13:58;6.68;;;3.10;;
44147;SDS011;29810;55.848;37.368;2022-08-01T16:17:00;12.02;;;3.47;;
44147;SDS011;29810;55.848;37.368;2022-08-01T16:20:01;5.57;;;3.20;;
44147;SDS011;29810;55.848;37.368;2022-08-01T16:23:04;5.72;;;3.10;;
44147;SDS011;29810;55.848;37.368;2022-08-01T16:26:06;6.90;;;3.20;;
44147;SDS011;29810;55.848;37.368;2022-08-01T16:29:08;6.22;;;2.90;;
44147;SDS011;29810;55.848;37.368;2022-08-01T16:32:10;5.87;;;3.15;;
44147;SDS011;29810;55.848;37.368;2022-08-01T16:35:11;6.15;;;2.87;;
44147;SDS011;29810;55.848;37.368;2022-08-01T16:38:13;5.97;;;3.03;;
44147;SDS011;29810;55.848;37.368;2022-08-01T16:41:17;5.12;;;3.22;;
44147;SDS011;29810;55.848;37.368;2022-08-01T16:44:18;5.80;;;3.22;;
44147;SDS011;29810;55.848;37.368;2022-08-01T16:47:20;5.45;;;3.10;;
44147;SDS011;29810;55.848;37.368;2022-08-01T16:50:22;8.27;;;3.20;;
44147;SDS011;29810;55.848;37.368;2022-08-01T16:53:24;4.53;;;2.90;;
44147;SDS011;29810;55.848;37.368;2022-08-01T16:56:25;7.22;;;3.03;;
44147;SDS011;29810;55.848;37.368;2022-08-01T16:59:27;6.45;;;3.12;;
44147;SDS011;29810;55.848;37.368;2022-08-01T17:02:28;4.57;;;2.90;;
44147;SDS011;29810;55.848;37.368;2022-08-01T17:05:30;5.15;;;2.60;;
44147;SDS011;29810;55.848;37.368;2022-08-01T17:08:32;6.10;;;3.30;;
44147;SDS011;29810;55.848;37.368;2022-08-01T17:11:34;4.35;;;3.30;;
44147;SDS011;29810;55.848;37.368;2022-08-01T17:14:35;5.22;;;3.00;;
44147;SDS011;29810;55.848;37.368;2022-08-01T17:17:39;5.22;;;3.25;;
44147;SDS011;29810;55.848;37.368;2022-08-01T17:20:41;5.85;;;3.30;;
44147;SDS011;29810;55.848;37.368;2022-08-01T17:23:44;4.28;;;2.95;;
44147;SDS011;29810;55.848;37.368;2022-08-01T17:26:45;3.95;;;3.25;;
44147;SDS011;29810;55.848;37.368;2022-08-01T17:29:47;9.55;;;3.45;;
44147;SDS011;29810;55.848;37.368;2022-08-01T17:32:49;5.87;;;3.15;;
44147;SDS011;29810;55.848;37.368;2022-08-01T17:35:50;6.43;;;3.37;;
44147;SDS011;29810;55.848;37.368;2022-08-01T17:38:52;5.78;;;3.30;;
44147;SDS011;29810;55.848;37.368;2022-08-01T17:41:53;6.82;;;3.62;;
44147;SDS011;29810;55.848;37.368;2022-08-01T17:44:55;6.37;;;3.45;;
44147;SDS011;29810;55.848;37.368;2022-08-01T17:47:57;5.85;;;3.37;;
44147;SDS011;29810;55.848;37.368;2022-08-01T17:50:59;6.75;;;3.08;;
44147;SDS011;29810;55.848;37.368;2022-08-01T17:54:01;5.00;;;3.00;;
44147;SDS011;29810;55.848;37.368;2022-08-01T17:57:03;4.70;;;3.62;;
44147;SDS011;29810;55.848;37.368;2022-08-01T18:00:05;7.72;;;3.33;;
44147;SDS011;29810;55.848;37.368;2022-08-01T18:03:09;5.97;;;3.35;;
44147;SDS011;29810;55.848;37.368;2022-08-01T18:06:12;7.72;;;3.87;;
44147;SDS011;29810;55.848;37.368;2022-08-01T18:09:17;6.12;;;3.35;;
44147;SDS011;29810;55.848;37.368;2022-08-01T18:12:19;8.05;;;3.58;;
44147;SDS011;29810;55.848;37.368;2022-08-01T18:15:21;7.62;;;3.83;;
44147;SDS011;29810;55.848;37.368;2022-08-01T18:18:22;10.18;;;3.85;;
44147;SDS011;29810;55.848;37.368;2022-08-01T18:21:25;8.57;;;4.30;;
44147;SDS011;29810;55.848;37.368;2022-08-01T18:24:27;7.10;;;4.28;;
44147;SDS011;29810;55.848;37.368;2022-08-01T18:27:29;7.87;;;4.90;;
44147;SDS011;29810;55.848;37.368;2022-08-01T18:30:30;7.93;;;4.25;;
44147;SDS011;29810;55.848;37.368;2022-08-01T18:33:32;8.40;;;4.00;;
44147;SDS011;29810;55.848;37.368;2022-08-01T18:36:34;9.13;;;4.65;;
44147;SDS011;29810;55.848;37.368;2022-08-01T18:39:36;9.52;;;5.10;;
44147;SDS011;29810;55.848;37.368;2022-08-01T18:42:38;13.50;;;5.70;;
44147;SDS011;29810;55.848;37.368;2022-08-01T18:45:39;8.82;;;5.32;;